Startpagina
METAR-TAF:

METAR-TAF

Vliegvelden :

Elsenborn

Bütgenbach, België

breedte: 50-28N, lengte: 006-11E, hoogte: 564 m

Actueel weer

Dit bericht is 42 minuten geleden gemaakt, om 02:25 UTC
Wind 3 kt uit het westnoordwesten
Temperatuur 15°C
Vochtigheid 88%
Druk 1017 hPa
Zicht: 7000 m

METAR: EBLB 170225Z AUTO 30003KT 7000 FEW006/// BKN020/// BKN055/// 15/13 Q1017 WHT

Tijdstip: 05:07 (03:07 UTC)


TAF: ontbreekt

Waarnemingen en weersverwachtingen van meer dan 4000 vliegvelden (METAR en TAF).

De beschikbare stations zijn de gele en rode punten op de kaart.

Ga met uw muis naar het station om de naam te zien.

Klik dan om waarnemingen en weersverwachtingen te zien.

kaart wijzigen: klik op de groene knoppen met een zwart kruis om in te zoomen, op de groene knop met een streepje om uit te zoomen of op de groene pijlen voor aangrenzende kaarten.


METAR-TAF: